Погода Кратовона неделю

Скопье, Македония

12 - 18 июля
  • 12июля
    Сегодня
    +19°
    +36°
    Практически безоблачно
    ВремяПогодаТемператураВлажностьДавлениеВетер, м/сВероятность осадков
    02:00Ясно и безоблачно+22°C50 %705 мм2.4 м/с2 %
    05:00Ясно и безоблачно+19°C58 %704 мм1.8 м/с2 %
    08:00Ясно и безоблачно+26°C43 %706 мм0.6 м/с2 %
    11:00Ясно и безоблачно+33°C30 %706 мм0.5 м/с2 %
    14:00Практически безоблачно+35°C25 %705 мм0.2 м/с2 %
    17:00Практически безоблачно+36°C22 %704 мм1.2 м/с2 %
    20:00Ясно и безоблачно+31°C36 %703 мм0.8 м/с2 %
    23:00Ясно и безоблачно+26°C39 %703 мм1.6 м/с2 %
  • 13июля
    Суббота
    +20°
    +38°
    Практически безоблачно
    ВремяПогодаТемператураВлажностьДавлениеВетер, м/сВероятность осадков
    02:00Ясно и безоблачно+21°C43 %702 мм1.4 м/с2 %
    05:00Ясно и безоблачно+20°C49 %702 мм1.4 м/с2 %
    08:00Ясно и безоблачно+26°C35 %704 мм0.7 м/с2 %
    11:00Ясно и безоблачно+33°C30 %705 мм1.2 м/с2 %
    14:00Практически безоблачно+36°C23 %704 мм1.4 м/с2 %
    17:00Практически безоблачно+37°C21 %704 мм1.5 м/с1 %
    20:00Ясно и безоблачно+31°C31 %703 мм1.7 м/с2 %
    23:00Ясно и безоблачно+26°C35 %703 мм2.8 м/с2 %
  • 14июля
    Воскресенье
    +19°
    +39°
    Ясно и безоблачно
    ВремяПогодаТемператураВлажностьДавлениеВетер, м/сВероятность осадков
    02:00Ясно и безоблачно+22°C46 %703 мм1.2 м/с2 %
    05:00Ясно и безоблачно+21°C50 %703 мм1.1 м/с2 %
    08:00Ясно и безоблачно+27°C35 %705 мм0.1 м/с2 %
    11:00Ясно и безоблачно+33°C27 %706 мм1.3 м/с2 %
    14:00Ясно и безоблачно+37°C21 %705 мм1.7 м/с2 %
    17:00Небольшая облачность+38°C20 %704 мм0.8 м/с8 %
    20:00Практически безоблачно+32°C31 %704 мм1.7 м/с2 %
    23:00Ясно и безоблачно+27°C35 %704 мм3.0 м/с2 %
  • 15июля
    Понедельник
    +19°
    +38°
    Практически безоблачно
    ВремяПогодаТемператураВлажностьДавлениеВетер, м/сВероятность осадков
    02:00Ясно и безоблачно+22°C42 %703 мм2.0 м/с2 %
    05:00Ясно и безоблачно+19°C49 %703 мм1.4 м/с2 %
    08:00Ясно и безоблачно+28°C33 %705 мм0.5 м/с2 %
    11:00Ясно и безоблачно+35°C24 %706 мм0.4 м/с2 %
    14:00Практически безоблачно+37°C20 %705 мм1.7 м/с2 %
    17:00Ясно и безоблачно+38°C20 %705 мм2.6 м/с6 %
    20:00Практически безоблачно+32°C27 %705 мм3.5 м/с4 %
    23:00Ясно и безоблачно+27°C33 %704 мм2.6 м/с2 %
  • 16июля
    Вторник
    +21°
    +39°
    Ясно и безоблачно
    ВремяПогодаТемператураВлажностьДавлениеВетер, м/сВероятность осадков
    02:00Ясно и безоблачно+22°C37 %704 мм1.4 м/с2 %
    05:00Ясно и безоблачно+20°C38 %704 мм1.0 м/с2 %
    08:00Ясно и безоблачно+27°C25 %706 мм0.3 м/с2 %
    11:00Ясно и безоблачно+35°C18 %706 мм0.7 м/с2 %
    14:00Ясно и безоблачно+38°C14 %705 мм0.6 м/с2 %
    17:00Ясно и безоблачно+39°C14 %705 мм0.3 м/с3 %
    20:00Ясно и безоблачно+32°C23 %704 мм1.9 м/с2 %
    23:00Ясно и безоблачно+27°C29 %704 мм1.9 м/с2 %
Мы используем cookies
Соглашаюсь